createdAt,value
2022-10-06T00:01:18.797Z,47.71
2022-10-06T00:03:47.939Z,47.28
2022-10-06T00:06:18.663Z,46.97
2022-10-06T00:08:48.633Z,46.99
2022-10-06T00:11:17.961Z,46.55
2022-10-06T00:13:46.823Z,46.24
2022-10-06T00:16:18.349Z,46.51
2022-10-06T00:18:46.997Z,46.85
2022-10-06T00:21:16.376Z,46.44
2022-10-06T00:23:44.755Z,46.81
2022-10-06T00:26:17.311Z,46.66
2022-10-06T00:28:48.544Z,46.98
2022-10-06T00:31:19.467Z,46.54
2022-10-06T00:33:50.071Z,47.10
2022-10-06T00:36:18.660Z,47.85
2022-10-06T00:38:47.173Z,48.07
2022-10-06T00:41:19.329Z,48.76
2022-10-06T00:43:51.555Z,48.44
2022-10-06T00:46:26.534Z,48.88
2022-10-06T00:49:03.565Z,48.80
2022-10-06T00:51:34.351Z,48.93
2022-10-06T00:54:03.808Z,48.98
2022-10-06T00:56:34.078Z,49.75
2022-10-06T00:59:02.445Z,49.20
2022-10-06T01:01:32.575Z,49.49
2022-10-06T01:04:07.246Z,49.69
2022-10-06T01:06:45.271Z,49.74
2022-10-06T01:09:17.834Z,49.55
2022-10-06T01:11:51.295Z,48.78
2022-10-06T01:14:22.547Z,48.55
2022-10-06T01:16:56.690Z,48.73
2022-10-06T01:19:36.372Z,48.46
2022-10-06T01:22:08.447Z,48.36
2022-10-06T01:24:38.784Z,48.06
2022-10-06T01:27:11.352Z,47.63
2022-10-06T01:29:40.355Z,47.51
2022-10-06T01:32:09.292Z,47.42
2022-10-06T01:34:38.088Z,47.90
2022-10-06T01:37:07.333Z,47.61
2022-10-06T01:39:35.952Z,47.66
2022-10-06T01:42:06.453Z,47.37
2022-10-06T01:44:35.067Z,47.04
2022-10-06T01:47:06.554Z,47.13
2022-10-06T01:49:35.223Z,46.84
2022-10-06T01:52:04.817Z,46.74
2022-10-06T01:54:33.640Z,47.55
2022-10-06T01:57:02.312Z,46.96
2022-10-06T01:59:32.693Z,47.46
2022-10-06T02:02:01.158Z,47.84
2022-10-06T02:04:31.769Z,47.48
2022-10-06T02:07:02.196Z,47.70
2022-10-06T02:09:31.401Z,47.33
2022-10-06T02:12:00.280Z,47.64
2022-10-06T02:14:32.125Z,47.41
2022-10-06T02:17:01.821Z,47.34
2022-10-06T02:19:30.250Z,47.40
2022-10-06T02:22:00.584Z,47.60
2022-10-06T02:24:30.201Z,47.65
2022-10-06T02:26:58.655Z,47.04
2022-10-06T02:29:27.211Z,47.65
2022-10-06T02:31:57.177Z,47.48
2022-10-06T02:34:27.820Z,47.47
2022-10-06T02:36:56.730Z,47.99
2022-10-06T02:39:26.056Z,47.42
2022-10-06T02:41:54.384Z,47.68
2022-10-06T02:44:25.261Z,46.98
2022-10-06T02:46:56.374Z,47.02
2022-10-06T02:49:25.135Z,46.80
2022-10-06T02:51:54.924Z,47.12
2022-10-06T02:54:23.376Z,47.17
2022-10-06T02:56:52.923Z,47.23
2022-10-06T02:59:21.456Z,47.10
2022-10-06T03:01:50.008Z,48.26
2022-10-06T03:04:20.162Z,48.02
2022-10-06T03:06:50.407Z,48.35
2022-10-06T03:09:23.236Z,48.49
2022-10-06T03:11:52.956Z,48.87
2022-10-06T03:14:47.744Z,48.80
2022-10-06T03:17:16.324Z,48.98
2022-10-06T03:19:51.196Z,48.87
2022-10-06T03:22:20.280Z,48.62
2022-10-06T03:24:56.361Z,48.81
2022-10-06T03:27:24.723Z,49.16
2022-10-06T03:29:57.306Z,48.89
2022-10-06T03:32:28.132Z,48.66
2022-10-06T03:34:57.205Z,49.08
2022-10-06T03:37:26.011Z,48.99
2022-10-06T03:39:55.961Z,48.95
2022-10-06T03:42:25.800Z,49.00
2022-10-06T03:44:55.224Z,49.24
2022-10-06T03:47:23.705Z,49.02
2022-10-06T03:49:52.188Z,49.21
2022-10-06T03:52:25.748Z,48.88
2022-10-06T03:54:56.350Z,49.08
2022-10-06T03:57:25.237Z,49.27
2022-10-06T03:59:53.709Z,49.51
2022-10-06T04:02:22.402Z,50.23
2022-10-06T04:04:51.850Z,51.02
2022-10-06T04:07:20.967Z,51.66
2022-10-06T04:09:49.720Z,51.12
2022-10-06T04:12:20.364Z,50.70
2022-10-06T04:14:49.028Z,50.88
2022-10-06T04:17:17.350Z,49.90
2022-10-06T04:19:45.759Z,50.17
2022-10-06T04:22:15.323Z,50.39
2022-10-06T04:24:44.092Z,50.17
2022-10-06T04:27:30.678Z,49.71
2022-10-06T04:30:11.494Z,50.07
2022-10-06T04:32:40.871Z,50.25
2022-10-06T04:35:10.515Z,50.42
2022-10-06T04:37:39.724Z,51.00
2022-10-06T04:40:09.692Z,51.36
2022-10-06T04:42:38.965Z,51.62
2022-10-06T04:45:12.813Z,51.65
2022-10-06T04:47:43.667Z,51.62
2022-10-06T04:50:12.296Z,51.12
2022-10-06T04:53:00.808Z,51.36
2022-10-06T04:55:29.405Z,51.81
2022-10-06T04:57:57.929Z,51.62
2022-10-06T05:00:28.580Z,51.36
2022-10-06T05:02:58.750Z,51.29
2022-10-06T05:05:27.401Z,51.12
2022-10-06T05:07:57.289Z,51.54
2022-10-06T05:10:26.126Z,51.74
2022-10-06T05:12:56.696Z,51.39
2022-10-06T05:15:25.196Z,51.27
2022-10-06T05:17:55.094Z,51.79
2022-10-06T05:20:24.184Z,51.86
2022-10-06T05:22:53.584Z,51.58
2022-10-06T05:25:22.182Z,51.42
2022-10-06T05:27:50.741Z,51.65
2022-10-06T05:30:19.211Z,52.11
2022-10-06T05:32:50.452Z,52.33
2022-10-06T05:35:21.348Z,52.63
2022-10-06T05:37:50.184Z,52.15
2022-10-06T05:40:18.960Z,52.18
2022-10-06T05:42:47.404Z,52.00
2022-10-06T05:45:16.284Z,52.20
2022-10-06T05:47:44.662Z,52.45
2022-10-06T05:50:13.010Z,52.56
2022-10-06T05:52:43.386Z,52.64
2022-10-06T05:55:11.697Z,52.90
2022-10-06T05:57:40.938Z,52.82
2022-10-06T06:00:10.903Z,53.12
2022-10-06T06:02:41.428Z,53.99
2022-10-06T06:05:11.109Z,54.43
2022-10-06T06:07:39.492Z,55.10
2022-10-06T06:10:10.537Z,54.24
2022-10-06T06:12:39.260Z,53.56
2022-10-06T06:15:48.627Z,52.97
2022-10-06T06:18:17.413Z,52.12
2022-10-06T06:20:55.582Z,51.42
2022-10-06T06:23:24.562Z,51.05
2022-10-06T06:26:02.684Z,50.87
2022-10-06T06:28:35.570Z,50.52
2022-10-06T06:31:07.137Z,50.49
2022-10-06T06:33:37.744Z,49.79
2022-10-06T06:36:14.528Z,49.21
2022-10-06T06:38:43.784Z,48.67
2022-10-06T06:41:17.981Z,48.38
2022-10-06T06:43:47.559Z,47.93
2022-10-06T06:46:27.379Z,48.44
2022-10-06T06:49:04.296Z,48.49
2022-10-06T06:51:36.919Z,47.86
2022-10-06T06:54:06.612Z,47.73
2022-10-06T06:56:40.226Z,47.62
2022-10-06T06:59:11.993Z,47.47
2022-10-06T07:01:47.354Z,46.75
2022-10-06T07:04:19.175Z,46.49
2022-10-06T07:06:53.306Z,46.06
2022-10-06T07:09:22.608Z,45.83
2022-10-06T07:11:54.988Z,45.92
2022-10-06T07:14:25.150Z,45.55
2022-10-06T07:17:11.698Z,44.96
2022-10-06T07:20:02.007Z,44.95
2022-10-06T07:22:50.300Z,44.77
2022-10-06T07:25:25.979Z,43.88
2022-10-06T07:28:04.048Z,43.78
2022-10-06T07:30:41.005Z,43.08
2022-10-06T07:33:19.741Z,43.12
2022-10-06T07:35:49.867Z,42.67
2022-10-06T07:38:25.686Z,43.37
2022-10-06T07:41:17.981Z,43.27
2022-10-06T07:43:47.043Z,43.35
2022-10-06T07:46:19.347Z,44.79
2022-10-06T07:49:21.308Z,45.60
2022-10-06T07:51:50.364Z,45.81
2022-10-06T07:54:22.837Z,46.40
2022-10-06T07:57:10.604Z,48.14
2022-10-06T07:59:41.634Z,47.71
2022-10-06T08:02:10.429Z,47.73
2022-10-06T08:04:39.130Z,49.72
2022-10-06T08:07:10.603Z,48.41
2022-10-06T08:09:39.025Z,49.17
2022-10-06T08:12:21.478Z,47.67
2022-10-06T08:14:51.270Z,46.97
2022-10-06T08:17:20.270Z,46.34
2022-10-06T08:19:48.678Z,46.20
2022-10-06T08:22:16.990Z,45.95
2022-10-06T08:25:04.661Z,46.49
2022-10-06T08:27:34.969Z,46.73
2022-10-06T08:30:07.260Z,47.13
2022-10-06T08:32:36.569Z,46.74
2022-10-06T08:35:05.583Z,46.09
2022-10-06T08:37:34.033Z,45.64
2022-10-06T08:40:02.473Z,46.33
2022-10-06T08:42:39.748Z,46.97
2022-10-06T08:45:15.877Z,45.76
2022-10-06T08:47:54.737Z,45.60
2022-10-06T08:50:26.921Z,44.98
2022-10-06T08:53:07.406Z,44.39
2022-10-06T08:55:42.875Z,43.76
2022-10-06T08:58:34.882Z,43.14
2022-10-06T09:01:15.293Z,43.12
2022-10-06T09:03:48.427Z,44.12
2022-10-06T09:06:27.134Z,44.30
2022-10-06T09:08:59.922Z,44.48
2022-10-06T09:11:47.697Z,45.69
2022-10-06T09:14:21.989Z,46.13
2022-10-06T09:16:55.317Z,46.34
2022-10-06T09:19:36.443Z,45.30
2022-10-06T09:22:07.972Z,44.16
2022-10-06T09:24:46.985Z,43.74
2022-10-06T09:27:19.562Z,43.63
2022-10-06T09:29:50.000Z,43.15
2022-10-06T09:32:21.162Z,41.83
2022-10-06T09:34:52.686Z,41.51
2022-10-06T09:37:21.088Z,40.91
2022-10-06T09:39:51.254Z,40.78
2022-10-06T09:42:24.164Z,40.53
2022-10-06T09:45:01.741Z,40.28
2022-10-06T09:47:36.601Z,40.14
2022-10-06T09:50:16.216Z,40.17
2022-10-06T09:53:03.775Z,40.04
2022-10-06T09:55:41.596Z,40.25
2022-10-06T09:58:21.814Z,40.14
2022-10-06T10:00:56.247Z,39.64
2022-10-06T10:03:30.389Z,40.49
2022-10-06T10:06:00.091Z,40.69
2022-10-06T10:08:30.792Z,41.41
2022-10-06T10:11:27.889Z,41.62
2022-10-06T10:13:57.771Z,41.01
2022-10-06T10:16:27.614Z,43.13
2022-10-06T10:19:00.175Z,43.27
2022-10-06T10:21:33.322Z,44.76
2022-10-06T10:24:05.065Z,42.87
2022-10-06T10:26:50.112Z,44.65
2022-10-06T10:29:38.670Z,43.64
2022-10-06T10:32:15.338Z,42.52
2022-10-06T10:35:04.319Z,41.71
2022-10-06T10:37:42.397Z,41.18
2022-10-06T10:40:30.670Z,39.98
2022-10-06T10:43:07.963Z,39.35
2022-10-06T10:45:41.133Z,38.71
2022-10-06T10:48:16.497Z,38.42
2022-10-06T10:50:55.450Z,39.31
2022-10-06T10:53:30.280Z,39.05
2022-10-06T10:55:59.256Z,39.14
2022-10-06T10:58:33.140Z,37.74
2022-10-06T11:01:08.978Z,36.54
2022-10-06T11:03:37.588Z,35.91
2022-10-06T11:06:26.165Z,35.44
2022-10-06T11:08:59.290Z,35.20
2022-10-06T11:11:43.535Z,35.18
2022-10-06T11:14:27.368Z,35.55
2022-10-06T11:17:05.194Z,36.42
2022-10-06T11:19:45.357Z,37.02
2022-10-06T11:22:21.226Z,36.66
2022-10-06T11:24:58.163Z,35.66
2022-10-06T11:27:37.267Z,35.67
2022-10-06T11:30:13.077Z,35.12
2022-10-06T11:32:54.377Z,34.25
2022-10-06T11:35:26.907Z,33.91
2022-10-06T11:38:04.191Z,33.61
2022-10-06T11:40:42.164Z,33.31
2022-10-06T11:43:19.474Z,35.09
2022-10-06T11:46:00.072Z,36.28
2022-10-06T11:48:31.246Z,34.96
2022-10-06T11:51:29.087Z,35.76
2022-10-06T11:54:00.470Z,36.45
2022-10-06T11:56:46.763Z,35.88
2022-10-06T11:59:27.036Z,36.06
2022-10-06T12:02:03.130Z,35.37
2022-10-06T12:04:31.841Z,35.34
2022-10-06T12:07:02.083Z,36.08
2022-10-06T12:09:52.619Z,37.69
2022-10-06T12:13:06.810Z,37.53
2022-10-06T12:19:16.912Z,37.85
2022-10-06T12:21:54.999Z,38.36
2022-10-06T12:24:39.266Z,38.55
2022-10-06T12:27:28.946Z,38.08
2022-10-06T12:30:04.093Z,38.35
2022-10-06T12:32:46.602Z,37.69
2022-10-06T12:35:29.016Z,37.25
2022-10-06T12:38:00.498Z,37.96
2022-10-06T12:40:49.628Z,37.38
2022-10-06T12:43:57.118Z,37.04
2022-10-06T12:46:37.882Z,36.73
2022-10-06T12:49:31.916Z,37.32
2022-10-06T12:52:09.646Z,38.56
2022-10-06T12:54:47.970Z,38.07
2022-10-06T12:57:20.021Z,37.23
2022-10-06T12:59:49.428Z,34.96
2022-10-06T13:02:22.352Z,36.06
2022-10-06T13:04:54.438Z,37.05
2022-10-06T13:07:25.557Z,38.61
2022-10-06T13:09:55.778Z,37.86
2022-10-06T13:12:28.220Z,39.17
2022-10-06T13:15:16.679Z,39.23
2022-10-06T13:17:50.192Z,39.51
2022-10-06T13:20:36.813Z,40.51
2022-10-06T13:23:19.517Z,40.44
2022-10-06T13:25:50.312Z,40.09
2022-10-06T13:28:31.107Z,40.38
2022-10-06T13:33:40.262Z,39.88
2022-10-06T13:36:10.879Z,38.70
2022-10-06T13:38:41.299Z,39.67
2022-10-06T13:41:23.599Z,39.82
2022-10-06T13:43:55.318Z,40.51
2022-10-06T13:46:27.223Z,40.55
2022-10-06T13:49:00.913Z,40.08
2022-10-06T13:51:31.337Z,41.27
2022-10-06T13:54:02.177Z,41.40
2022-10-06T13:56:36.886Z,41.09
2022-10-06T13:59:33.790Z,41.04
2022-10-06T14:02:16.015Z,40.64
2022-10-06T14:04:46.409Z,40.99
2022-10-06T14:07:15.792Z,39.91
2022-10-06T14:09:44.242Z,41.11
2022-10-06T14:12:16.170Z,41.22
2022-10-06T14:14:48.572Z,41.18
2022-10-06T14:17:24.191Z,40.86
2022-10-06T14:19:54.108Z,40.84
2022-10-06T14:22:34.309Z,39.99
2022-10-06T14:25:03.109Z,39.58
2022-10-06T14:27:31.713Z,38.78
2022-10-06T14:30:00.228Z,38.04
2022-10-06T14:32:29.063Z,38.09
2022-10-06T14:34:59.000Z,38.63
2022-10-06T14:37:27.426Z,38.38
2022-10-06T14:39:56.480Z,38.24
2022-10-06T14:42:25.122Z,38.50
2022-10-06T14:44:53.496Z,38.56
2022-10-06T14:47:22.132Z,39.42
2022-10-06T14:49:50.626Z,39.54
2022-10-06T14:52:21.548Z,39.46
2022-10-06T14:54:50.790Z,40.50
2022-10-06T14:57:20.583Z,40.18
2022-10-06T14:59:48.933Z,40.77
2022-10-06T15:02:20.417Z,41.17
2022-10-06T15:04:49.454Z,41.63
2022-10-06T15:07:49.899Z,41.34
2022-10-06T15:10:20.169Z,42.30
2022-10-06T15:12:48.724Z,42.21
2022-10-06T15:15:17.494Z,42.26
2022-10-06T15:17:45.930Z,41.89
2022-10-06T15:20:14.826Z,41.77
2022-10-06T15:22:43.520Z,41.51
2022-10-06T15:25:33.390Z,41.10
2022-10-06T15:28:23.573Z,41.16
2022-10-06T15:30:52.266Z,41.00
2022-10-06T15:33:20.945Z,40.35
2022-10-06T15:36:15.462Z,40.22
2022-10-06T15:38:44.728Z,40.31
2022-10-06T15:41:13.804Z,40.87
2022-10-06T15:43:58.630Z,41.39
2022-10-06T15:46:30.235Z,41.03
2022-10-06T15:49:01.387Z,41.40
2022-10-06T15:51:31.547Z,41.68
2022-10-06T15:54:00.087Z,42.02
2022-10-06T15:56:31.157Z,42.23
2022-10-06T15:59:01.007Z,42.21
2022-10-06T16:01:42.967Z,42.39
2022-10-06T16:04:23.963Z,42.50
2022-10-06T16:06:55.814Z,42.76
2022-10-06T16:09:25.854Z,42.91
2022-10-06T16:11:55.620Z,42.95
2022-10-06T16:14:25.919Z,43.50
2022-10-06T16:16:58.998Z,43.32
2022-10-06T16:19:29.476Z,43.08
2022-10-06T16:21:59.192Z,43.59
2022-10-06T16:24:27.831Z,43.46
2022-10-06T16:26:58.632Z,43.19
2022-10-06T16:29:29.534Z,42.93
2022-10-06T16:31:59.144Z,42.63
2022-10-06T16:34:27.528Z,42.05
2022-10-06T16:36:56.271Z,41.85
2022-10-06T16:39:25.323Z,42.10
2022-10-06T16:41:54.134Z,41.58
2022-10-06T16:44:22.833Z,41.63
2022-10-06T16:46:52.617Z,41.98
2022-10-06T16:49:21.585Z,41.85
2022-10-06T16:51:50.216Z,41.68
2022-10-06T16:54:18.603Z,42.14
2022-10-06T16:56:48.988Z,41.74
2022-10-06T16:59:19.604Z,42.02
2022-10-06T17:01:48.849Z,41.74
2022-10-06T17:04:20.986Z,41.62
2022-10-06T17:06:51.983Z,42.09
2022-10-06T17:09:22.376Z,42.23
2022-10-06T17:11:52.911Z,42.02
2022-10-06T17:14:22.524Z,42.03
2022-10-06T17:16:53.269Z,42.18
2022-10-06T17:19:25.269Z,41.95
2022-10-06T17:21:58.538Z,41.98
2022-10-06T17:24:29.549Z,41.44
2022-10-06T17:26:59.341Z,41.78
2022-10-06T17:29:27.935Z,41.34
2022-10-06T17:31:59.073Z,41.32
2022-10-06T17:34:32.922Z,41.16
2022-10-06T17:37:03.660Z,41.15
2022-10-06T17:39:32.707Z,41.42
2022-10-06T17:42:01.411Z,41.40
2022-10-06T17:44:31.526Z,41.30
2022-10-06T17:47:01.444Z,41.28
2022-10-06T17:49:34.701Z,41.32
2022-10-06T17:52:03.739Z,41.16
2022-10-06T17:54:34.450Z,41.20
2022-10-06T17:57:02.982Z,41.30
2022-10-06T17:59:33.842Z,41.42
2022-10-06T18:02:03.937Z,41.10
2022-10-06T18:04:35.866Z,41.20
2022-10-06T18:07:05.354Z,41.07
2022-10-06T18:09:34.038Z,41.32
2022-10-06T18:12:02.825Z,40.96
2022-10-06T18:14:33.622Z,41.29
2022-10-06T18:17:04.051Z,40.98
2022-10-06T18:19:35.851Z,41.63
2022-10-06T18:22:10.115Z,41.70
2022-10-06T18:24:40.191Z,41.48
2022-10-06T18:27:09.821Z,41.74
2022-10-06T18:29:39.772Z,41.97
2022-10-06T18:33:00.257Z,41.67
2022-10-06T18:37:47.887Z,41.85
2022-10-06T18:40:16.733Z,42.12
2022-10-06T18:42:45.355Z,42.16
2022-10-06T18:49:11.481Z,42.65
2022-10-06T18:51:43.585Z,42.51
2022-10-06T18:54:26.902Z,42.43
2022-10-06T18:56:56.382Z,43.13
2022-10-06T18:59:31.357Z,43.57
2022-10-06T19:04:52.158Z,43.18
2022-10-06T19:07:22.548Z,43.89
2022-10-06T19:09:51.211Z,43.57
2022-10-06T19:12:19.992Z,43.65
2022-10-06T19:14:48.475Z,43.56
2022-10-06T19:17:17.331Z,43.23
2022-10-06T19:19:51.131Z,43.46
2022-10-06T19:22:24.747Z,43.49
2022-10-06T19:24:53.844Z,43.66
2022-10-06T19:27:25.529Z,43.47
2022-10-06T19:29:56.979Z,43.49
2022-10-06T19:32:28.046Z,43.57
2022-10-06T19:34:59.042Z,43.52
2022-10-06T19:37:31.234Z,43.83
2022-10-06T19:40:00.107Z,43.64
2022-10-06T19:42:45.603Z,44.11
2022-10-06T19:45:15.592Z,43.99
2022-10-06T19:47:47.069Z,44.17
2022-10-06T19:50:18.046Z,44.25
2022-10-06T19:52:47.896Z,44.87
2022-10-06T19:55:16.700Z,44.21
2022-10-06T19:57:45.549Z,44.81
2022-10-06T20:00:14.890Z,44.69
2022-10-06T20:02:44.886Z,44.80
2022-10-06T20:05:15.173Z,45.07
2022-10-06T20:07:46.185Z,45.27
2022-10-06T20:10:16.696Z,45.14
2022-10-06T20:12:45.038Z,45.12
2022-10-06T20:15:14.164Z,45.25
2022-10-06T20:17:45.535Z,44.98
2022-10-06T20:20:14.712Z,45.39
2022-10-06T20:22:43.429Z,45.40
2022-10-06T20:25:11.813Z,44.98
2022-10-06T20:27:41.699Z,44.91
2022-10-06T20:30:11.289Z,45.04
2022-10-06T20:32:39.713Z,45.31
2022-10-06T20:35:09.624Z,45.16
2022-10-06T20:37:41.838Z,45.68
2022-10-06T20:40:28.838Z,46.20
2022-10-06T20:43:00.845Z,46.46
2022-10-06T20:45:29.954Z,46.93
2022-10-06T20:48:00.132Z,46.16
2022-10-06T20:50:31.033Z,45.86
2022-10-06T20:52:59.666Z,45.97
2022-10-06T20:55:28.084Z,47.06
2022-10-06T20:57:56.764Z,47.44
2022-10-06T21:00:26.807Z,47.55
2022-10-06T21:02:56.355Z,47.58
2022-10-06T21:05:25.027Z,47.30
2022-10-06T21:07:53.754Z,47.04
2022-10-06T21:10:22.998Z,47.29
2022-10-06T21:12:51.583Z,47.74
2022-10-06T21:15:19.991Z,47.97
2022-10-06T21:17:49.744Z,47.72
2022-10-06T21:20:18.348Z,48.07
2022-10-06T21:22:46.731Z,48.14
2022-10-06T21:25:17.474Z,48.58
2022-10-06T21:27:47.288Z,48.59
2022-10-06T21:30:16.029Z,49.11
2022-10-06T21:32:44.410Z,49.66
2022-10-06T21:35:14.435Z,49.79
2022-10-06T21:37:43.076Z,49.26
2022-10-06T21:40:11.806Z,50.15
2022-10-06T21:42:40.492Z,50.97
2022-10-06T21:45:09.543Z,50.96
2022-10-06T21:47:37.914Z,51.40
2022-10-06T21:50:07.162Z,50.78
2022-10-06T21:52:36.962Z,51.08
2022-10-06T21:55:06.466Z,51.32
2022-10-06T21:57:34.770Z,52.48
2022-10-06T22:00:03.343Z,51.96
2022-10-06T22:02:41.605Z,51.74
2022-10-06T22:05:11.000Z,51.72
2022-10-06T22:07:40.763Z,51.90
2022-10-06T22:10:09.680Z,51.64
2022-10-06T22:12:37.983Z,51.72
2022-10-06T22:15:07.335Z,51.81
2022-10-06T22:17:35.955Z,51.73
2022-10-06T22:20:04.540Z,52.10
2022-10-06T22:22:32.910Z,52.32
2022-10-06T22:25:02.896Z,52.68
2022-10-06T22:27:32.323Z,52.88
2022-10-06T22:30:00.790Z,52.82
2022-10-06T22:32:29.385Z,52.76
2022-10-06T22:34:57.874Z,52.22
2022-10-06T22:37:26.250Z,52.84
2022-10-06T22:39:54.814Z,52.53
2022-10-06T22:42:24.642Z,52.65
2022-10-06T22:44:53.011Z,53.00
2022-10-06T22:47:21.584Z,53.24
2022-10-06T22:49:49.938Z,52.94
2022-10-06T22:52:18.342Z,52.98
2022-10-06T22:54:46.914Z,52.91
2022-10-06T22:57:15.213Z,53.10
2022-10-06T22:59:45.194Z,52.93
2022-10-06T23:02:13.808Z,52.90
2022-10-06T23:04:42.181Z,52.99
2022-10-06T23:07:10.517Z,53.45
2022-10-06T23:09:41.332Z,53.06
2022-10-06T23:12:09.754Z,53.16
2022-10-06T23:14:38.128Z,53.12
2022-10-06T23:17:08.098Z,53.49
2022-10-06T23:19:36.490Z,53.32
2022-10-06T23:22:05.268Z,53.44
2022-10-06T23:24:33.880Z,53.79
2022-10-06T23:27:04.458Z,54.54
2022-10-06T23:29:32.800Z,53.83
2022-10-06T23:32:01.394Z,54.25
2022-10-06T23:34:31.167Z,54.22
2022-10-06T23:36:59.549Z,54.27
2022-10-06T23:39:28.631Z,53.94
2022-10-06T23:41:57.043Z,55.12
2022-10-06T23:44:25.994Z,55.09
2022-10-06T23:46:54.757Z,55.26
2022-10-06T23:49:23.285Z,55.44
2022-10-06T23:51:53.044Z,55.35
2022-10-06T23:54:21.821Z,55.31
2022-10-06T23:56:51.406Z,55.78
2022-10-06T23:59:20.290Z,56.15
